sensor_id;sensor_type;location;lat;lon;timestamp;pressure;altitude;pressure_sealevel;temperature;humidity
51849;BME280;38952;51.090;-1.832;2023-05-12T00:02:07;100655.13;;;9.58;89.44
51849;BME280;38952;51.090;-1.832;2023-05-12T00:04:32;100637.78;;;9.47;89.82
51849;BME280;38952;51.090;-1.832;2023-05-12T00:07:00;100647.03;;;9.46;89.63
51849;BME280;38952;51.090;-1.832;2023-05-12T00:09:25;100650.25;;;9.43;89.58
51849;BME280;38952;51.090;-1.832;2023-05-12T00:11:51;100632.38;;;9.30;90.32
51849;BME280;38952;51.090;-1.832;2023-05-12T00:14:19;100652.44;;;9.41;90.47
51849;BME280;38952;51.090;-1.832;2023-05-12T00:16:47;100647.41;;;9.33;90.66
51849;BME280;38952;51.090;-1.832;2023-05-12T00:19:16;100617.44;;;9.16;90.23
51849;BME280;38952;51.090;-1.832;2023-05-12T00:21:42;100652.03;;;9.32;90.76
51849;BME280;38952;51.090;-1.832;2023-05-12T00:24:10;100663.78;;;9.33;91.57
51849;BME280;38952;51.090;-1.832;2023-05-12T00:26:35;100655.53;;;9.28;91.47
51849;BME280;38952;51.090;-1.832;2023-05-12T00:29:01;100650.06;;;9.28;91.62
51849;BME280;38952;51.090;-1.832;2023-05-12T00:31:28;100668.59;;;9.25;91.02
51849;BME280;38952;51.090;-1.832;2023-05-12T00:33:53;100664.78;;;9.26;91.91
51849;BME280;38952;51.090;-1.832;2023-05-12T00:36:18;100661.16;;;9.21;92.17
51849;BME280;38952;51.090;-1.832;2023-05-12T00:38:44;100669.59;;;9.19;91.99
51849;BME280;38952;51.090;-1.832;2023-05-12T00:41:09;100671.75;;;9.17;92.32
51849;BME280;38952;51.090;-1.832;2023-05-12T00:43:35;100664.00;;;9.09;92.65
51849;BME280;38952;51.090;-1.832;2023-05-12T00:46:07;100657.97;;;9.07;92.95
51849;BME280;38952;51.090;-1.832;2023-05-12T00:48:34;100663.69;;;9.05;92.97
51849;BME280;38952;51.090;-1.832;2023-05-12T00:51:01;100679.84;;;9.12;93.29
51849;BME280;38952;51.090;-1.832;2023-05-12T00:53:27;100675.41;;;9.06;93.74
51849;BME280;38952;51.090;-1.832;2023-05-12T00:55:53;100686.47;;;9.16;93.75
51849;BME280;38952;51.090;-1.832;2023-05-12T00:58:19;100694.09;;;9.14;93.85
51849;BME280;38952;51.090;-1.832;2023-05-12T01:00:45;100683.50;;;9.01;94.06
51849;BME280;38952;51.090;-1.832;2023-05-12T01:03:10;100686.66;;;8.93;94.38
51849;BME280;38952;51.090;-1.832;2023-05-12T01:05:47;100691.06;;;8.94;94.37
51849;BME280;38952;51.090;-1.832;2023-05-12T01:08:18;100699.72;;;8.90;94.37
51849;BME280;38952;51.090;-1.832;2023-05-12T01:10:45;100696.16;;;8.90;95.05
51849;BME280;38952;51.090;-1.832;2023-05-12T01:13:11;100704.34;;;8.90;94.81
51849;BME280;38952;51.090;-1.832;2023-05-12T01:15:40;100706.50;;;8.88;95.33
51849;BME280;38952;51.090;-1.832;2023-05-12T01:18:07;100695.75;;;8.81;95.52
51849;BME280;38952;51.090;-1.832;2023-05-12T01:20:36;100706.75;;;8.86;95.41
51849;BME280;38952;51.090;-1.832;2023-05-12T01:23:02;100712.69;;;8.83;95.21
51849;BME280;38952;51.090;-1.832;2023-05-12T01:25:31;100685.66;;;8.65;95.73
51849;BME280;38952;51.090;-1.832;2023-05-12T01:27:57;100711.03;;;8.82;95.36
51849;BME280;38952;51.090;-1.832;2023-05-12T01:30:23;100710.38;;;8.75;95.55
51849;BME280;38952;51.090;-1.832;2023-05-12T01:32:49;100712.25;;;8.74;96.03
51849;BME280;38952;51.090;-1.832;2023-05-12T01:35:15;100709.78;;;8.73;96.38
51849;BME280;38952;51.090;-1.832;2023-05-12T01:37:40;100701.53;;;8.68;95.95
51849;BME280;38952;51.090;-1.832;2023-05-12T01:40:06;100715.22;;;8.73;96.14
51849;BME280;38952;51.090;-1.832;2023-05-12T01:42:32;100712.50;;;8.73;96.46
51849;BME280;38952;51.090;-1.832;2023-05-12T01:44:57;100715.22;;;8.73;96.69
51849;BME280;38952;51.090;-1.832;2023-05-12T01:47:23;100713.84;;;8.70;96.14
51849;BME280;38952;51.090;-1.832;2023-05-12T01:49:48;100722.34;;;8.74;96.49
51849;BME280;38952;51.090;-1.832;2023-05-12T01:52:13;100722.84;;;8.71;96.33
51849;BME280;38952;51.090;-1.832;2023-05-12T01:54:39;100729.38;;;8.70;96.36
51849;BME280;38952;51.090;-1.832;2023-05-12T01:57:05;100727.63;;;8.64;96.83
51849;BME280;38952;51.090;-1.832;2023-05-12T01:59:30;100721.25;;;8.58;96.93
51849;BME280;38952;51.090;-1.832;2023-05-12T02:01:56;100732.75;;;8.60;97.42
51849;BME280;38952;51.090;-1.832;2023-05-12T02:04:21;100742.31;;;8.63;97.05
51849;BME280;38952;51.090;-1.832;2023-05-12T02:06:47;100729.44;;;8.58;97.26
51849;BME280;38952;51.090;-1.832;2023-05-12T02:09:12;100712.56;;;8.44;97.28
51849;BME280;38952;51.090;-1.832;2023-05-12T02:11:42;100714.00;;;8.35;97.47
51849;BME280;38952;51.090;-1.832;2023-05-12T02:14:10;100719.56;;;8.40;97.82
51849;BME280;38952;51.090;-1.832;2023-05-12T02:16:35;100735.06;;;8.51;98.23
51849;BME280;38952;51.090;-1.832;2023-05-12T02:19:01;100727.13;;;8.50;98.44
51849;BME280;38952;51.090;-1.832;2023-05-12T02:21:26;100706.97;;;8.39;98.20
51849;BME280;38952;51.090;-1.832;2023-05-12T02:23:52;100728.44;;;8.47;98.01
51849;BME280;38952;51.090;-1.832;2023-05-12T02:26:20;100750.31;;;8.52;98.45
51849;BME280;38952;51.090;-1.832;2023-05-12T02:28:48;100728.09;;;8.32;98.07
51849;BME280;38952;51.090;-1.832;2023-05-12T02:31:13;100745.75;;;8.41;98.86
51849;BME280;38952;51.090;-1.832;2023-05-12T02:33:39;100733.47;;;8.27;98.66
51849;BME280;38952;51.090;-1.832;2023-05-12T02:36:04;100742.72;;;8.26;99.21
51849;BME280;38952;51.090;-1.832;2023-05-12T02:38:30;100747.81;;;8.22;99.69
51849;BME280;38952;51.090;-1.832;2023-05-12T02:40:55;100744.84;;;8.24;99.79
51849;BME280;38952;51.090;-1.832;2023-05-12T02:43:21;100742.59;;;8.20;99.58
51849;BME280;38952;51.090;-1.832;2023-05-12T02:45:46;100747.47;;;8.18;99.52
51849;BME280;38952;51.090;-1.832;2023-05-12T02:48:11;100744.41;;;8.15;99.69
51849;BME280;38952;51.090;-1.832;2023-05-12T02:50:37;100752.34;;;8.16;99.80
51849;BME280;38952;51.090;-1.832;2023-05-12T02:53:02;100753.28;;;8.10;99.96
51849;BME280;38952;51.090;-1.832;2023-05-12T02:55:31;100728.72;;;7.93;99.98
51849;BME280;38952;51.090;-1.832;2023-05-12T02:57:56;100736.16;;;7.98;100.00
51849;BME280;38952;51.090;-1.832;2023-05-12T03:00:22;100746.56;;;8.01;100.00
51849;BME280;38952;51.090;-1.832;2023-05-12T03:02:47;100753.69;;;8.02;100.00
51849;BME280;38952;51.090;-1.832;2023-05-12T03:05:13;100745.41;;;7.97;100.00
51849;BME280;38952;51.090;-1.832;2023-05-12T03:07:38;100760.75;;;8.03;100.00
51849;BME280;38952;51.090;-1.832;2023-05-12T03:10:04;100757.38;;;7.96;100.00
51849;BME280;38952;51.090;-1.832;2023-05-12T03:12:30;100763.97;;;8.00;100.00
51849;BME280;38952;51.090;-1.832;2023-05-12T03:14:56;100742.69;;;7.85;100.00
51849;BME280;38952;51.090;-1.832;2023-05-12T03:17:21;100762.22;;;7.94;100.00
51849;BME280;38952;51.090;-1.832;2023-05-12T03:19:49;100769.91;;;7.97;100.00
51849;BME280;38952;51.090;-1.832;2023-05-12T03:22:15;100773.31;;;8.04;100.00
51849;BME280;38952;51.090;-1.832;2023-05-12T03:24:40;100773.31;;;8.04;100.00
51849;BME280;38952;51.090;-1.832;2023-05-12T03:27:06;100770.03;;;8.02;100.00
51849;BME280;38952;51.090;-1.832;2023-05-12T03:29:31;100773.81;;;8.01;100.00
51849;BME280;38952;51.090;-1.832;2023-05-12T03:31:57;100779.38;;;8.06;100.00
51849;BME280;38952;51.090;-1.832;2023-05-12T03:34:22;100784.09;;;8.11;100.00
51849;BME280;38952;51.090;-1.832;2023-05-12T03:36:48;100770.34;;;8.06;100.00
51849;BME280;38952;51.090;-1.832;2023-05-12T03:39:13;100788.00;;;8.15;100.00
51849;BME280;38952;51.090;-1.832;2023-05-12T03:41:39;100793.09;;;8.11;100.00
51849;BME280;38952;51.090;-1.832;2023-05-12T03:44:04;100802.44;;;8.15;100.00
51849;BME280;38952;51.090;-1.832;2023-05-12T03:46:32;100791.34;;;8.05;100.00
51849;BME280;38952;51.090;-1.832;2023-05-12T03:48:58;100797.97;;;8.09;100.00
51849;BME280;38952;51.090;-1.832;2023-05-12T03:51:24;100795.97;;;8.04;100.00
51849;BME280;38952;51.090;-1.832;2023-05-12T03:53:50;100804.72;;;8.07;100.00
51849;BME280;38952;51.090;-1.832;2023-05-12T03:56:15;100798.44;;;7.94;100.00
51849;BME280;38952;51.090;-1.832;2023-05-12T03:58:44;100803.19;;;7.99;100.00
51849;BME280;38952;51.090;-1.832;2023-05-12T04:01:12;100810.03;;;8.13;100.00
51849;BME280;38952;51.090;-1.832;2023-05-12T04:03:47;100803.47;;;8.26;100.00
51849;BME280;38952;51.090;-1.832;2023-05-12T04:06:13;100822.47;;;8.62;100.00
51849;BME280;38952;51.090;-1.832;2023-05-12T04:08:41;100785.69;;;8.64;100.00
51849;BME280;38952;51.090;-1.832;2023-05-12T04:11:06;100829.66;;;8.97;100.00
51849;BME280;38952;51.090;-1.832;2023-05-12T04:13:31;100827.19;;;9.12;100.00
51849;BME280;38952;51.090;-1.832;2023-05-12T04:15:58;100830.34;;;9.21;99.42
51849;BME280;38952;51.090;-1.832;2023-05-12T04:18:24;100831.34;;;9.32;99.65
51849;BME280;38952;51.090;-1.832;2023-05-12T04:20:50;100833.50;;;9.47;99.12
51849;BME280;38952;51.090;-1.832;2023-05-12T04:23:15;100834.47;;;9.57;98.67
51849;BME280;38952;51.090;-1.832;2023-05-12T04:25:44;100841.09;;;9.61;98.85
51849;BME280;38952;51.090;-1.832;2023-05-12T04:28:10;100837.31;;;9.63;99.13
51849;BME280;38952;51.090;-1.832;2023-05-12T04:30:38;100818.09;;;9.57;98.94
51849;BME280;38952;51.090;-1.832;2023-05-12T04:33:06;100846.22;;;9.75;98.80
51849;BME280;38952;51.090;-1.832;2023-05-12T04:35:41;100821.22;;;9.66;98.41
51849;BME280;38952;51.090;-1.832;2023-05-12T04:38:06;100839.75;;;9.81;98.83
51849;BME280;38952;51.090;-1.832;2023-05-12T04:40:31;100828.34;;;9.84;98.92
51849;BME280;38952;51.090;-1.832;2023-05-12T04:42:57;100846.00;;;9.99;98.56
51849;BME280;38952;51.090;-1.832;2023-05-12T04:45:22;100854.28;;;10.04;98.91
51849;BME280;38952;51.090;-1.832;2023-05-12T04:47:48;100851.47;;;9.99;98.18
51849;BME280;38952;51.090;-1.832;2023-05-12T04:50:13;100864.88;;;10.00;98.88
51849;BME280;38952;51.090;-1.832;2023-05-12T04:52:45;100866.28;;;10.03;98.99
51849;BME280;38952;51.090;-1.832;2023-05-12T04:55:10;100861.72;;;10.08;98.71
51849;BME280;38952;51.090;-1.832;2023-05-12T04:57:36;100860.91;;;10.08;98.39
51849;BME280;38952;51.090;-1.832;2023-05-12T05:00:02;100874.13;;;10.16;98.71
51849;BME280;38952;51.090;-1.832;2023-05-12T05:02:29;100864.53;;;10.13;98.57
51849;BME280;38952;51.090;-1.832;2023-05-12T05:04:55;100861.53;;;10.15;98.94
51849;BME280;38952;51.090;-1.832;2023-05-12T05:07:20;100884.13;;;10.27;98.71
51849;BME280;38952;51.090;-1.832;2023-05-12T05:09:46;100861.34;;;10.22;98.26
51849;BME280;38952;51.090;-1.832;2023-05-12T05:12:14;100875.50;;;10.36;98.69
51849;BME280;38952;51.090;-1.832;2023-05-12T05:14:39;100857.84;;;10.26;98.67
51849;BME280;38952;51.090;-1.832;2023-05-12T05:17:05;100864.06;;;10.39;98.20
51849;BME280;38952;51.090;-1.832;2023-05-12T05:19:32;100892.81;;;10.63;98.75
51849;BME280;38952;51.090;-1.832;2023-05-12T05:21:57;100867.31;;;10.58;97.87
51849;BME280;38952;51.090;-1.832;2023-05-12T05:24:30;100892.97;;;10.79;97.76
51849;BME280;38952;51.090;-1.832;2023-05-12T05:27:00;100896.84;;;10.83;97.78
51849;BME280;38952;51.090;-1.832;2023-05-12T05:29:25;100870.47;;;10.72;97.55
51849;BME280;38952;51.090;-1.832;2023-05-12T05:31:51;100877.16;;;10.81;98.07
51849;BME280;38952;51.090;-1.832;2023-05-12T05:34:17;100914.09;;;11.06;97.96
51849;BME280;38952;51.090;-1.832;2023-05-12T05:36:48;100907.84;;;11.10;97.08
51849;BME280;38952;51.090;-1.832;2023-05-12T05:39:13;100894.88;;;11.00;97.33
51849;BME280;38952;51.090;-1.832;2023-05-12T05:41:39;100901.28;;;11.11;97.01
51849;BME280;38952;51.090;-1.832;2023-05-12T05:44:12;100899.44;;;11.17;97.06
51849;BME280;38952;51.090;-1.832;2023-05-12T05:46:40;100920.06;;;11.30;96.41
51849;BME280;38952;51.090;-1.832;2023-05-12T05:49:06;100915.13;;;11.27;96.09
51849;BME280;38952;51.090;-1.832;2023-05-12T05:51:33;100915.97;;;11.27;96.38
51849;BME280;38952;51.090;-1.832;2023-05-12T05:53:59;100907.16;;;11.25;95.52
51849;BME280;38952;51.090;-1.832;2023-05-12T05:56:24;100921.63;;;11.48;95.88
51849;BME280;38952;51.090;-1.832;2023-05-12T05:58:51;100927.03;;;11.70;95.04
51849;BME280;38952;51.090;-1.832;2023-05-12T06:01:16;100917.22;;;11.79;93.96
51849;BME280;38952;51.090;-1.832;2023-05-12T06:03:42;100942.72;;;12.12;92.85
51849;BME280;38952;51.090;-1.832;2023-05-12T06:06:07;100940.84;;;12.23;91.83
51849;BME280;38952;51.090;-1.832;2023-05-12T06:08:33;100959.88;;;12.40;91.12
51849;BME280;38952;51.090;-1.832;2023-05-12T06:10:58;100968.13;;;12.45;90.77
51849;BME280;38952;51.090;-1.832;2023-05-12T06:13:24;100955.53;;;12.44;89.86
51849;BME280;38952;51.090;-1.832;2023-05-12T06:15:50;100959.94;;;12.50;89.79
51849;BME280;38952;51.090;-1.832;2023-05-12T06:18:15;100969.00;;;12.51;88.81
51849;BME280;38952;51.090;-1.832;2023-05-12T06:20:41;100970.59;;;12.47;88.65
51849;BME280;38952;51.090;-1.832;2023-05-12T06:23:06;100970.59;;;12.42;88.94
51849;BME280;38952;51.090;-1.832;2023-05-12T06:25:32;100975.88;;;12.53;88.59
51849;BME280;38952;51.090;-1.832;2023-05-12T06:27:57;100973.53;;;12.78;88.17
51849;BME280;38952;51.090;-1.832;2023-05-12T06:30:23;100979.91;;;12.93;87.14
51849;BME280;38952;51.090;-1.832;2023-05-12T06:32:51;100982.38;;;12.95;86.31
51849;BME280;38952;51.090;-1.832;2023-05-12T06:35:16;100979.59;;;12.85;86.11
51849;BME280;38952;51.090;-1.832;2023-05-12T06:37:42;100982.94;;;13.02;85.67
51849;BME280;38952;51.090;-1.832;2023-05-12T06:40:13;100990.72;;;13.21;85.29
51849;BME280;38952;51.090;-1.832;2023-05-12T06:42:39;100985.34;;;13.57;83.69
51849;BME280;38952;51.090;-1.832;2023-05-12T06:45:05;100983.97;;;13.54;82.15
51849;BME280;38952;51.090;-1.832;2023-05-12T06:47:30;100993.56;;;13.47;80.77
51849;BME280;38952;51.090;-1.832;2023-05-12T06:49:56;100998.41;;;13.24;80.18
51849;BME280;38952;51.090;-1.832;2023-05-12T06:52:29;101007.19;;;13.21;79.14
51849;BME280;38952;51.090;-1.832;2023-05-12T06:54:54;100992.34;;;13.12;78.17
51849;BME280;38952;51.090;-1.832;2023-05-12T06:57:22;100993.44;;;13.16;76.73
51849;BME280;38952;51.090;-1.832;2023-05-12T06:59:48;101002.81;;;13.25;76.88
51849;BME280;38952;51.090;-1.832;2023-05-12T07:02:13;101010.78;;;13.26;76.85
51849;BME280;38952;51.090;-1.832;2023-05-12T07:04:39;101011.66;;;13.37;77.03
51849;BME280;38952;51.090;-1.832;2023-05-12T07:07:05;101013.88;;;13.46;76.18
51849;BME280;38952;51.090;-1.832;2023-05-12T07:09:30;101021.00;;;13.36;76.09
51849;BME280;38952;51.090;-1.832;2023-05-12T07:11:55;101028.63;;;13.24;76.66
51849;BME280;38952;51.090;-1.832;2023-05-12T07:14:21;101026.41;;;13.16;76.44
51849;BME280;38952;51.090;-1.832;2023-05-12T07:16:46;101024.19;;;13.18;76.24
51849;BME280;38952;51.090;-1.832;2023-05-12T07:19:12;101021.50;;;13.23;76.47
51849;BME280;38952;51.090;-1.832;2023-05-12T07:21:37;101021.72;;;13.16;76.21
51849;BME280;38952;51.090;-1.832;2023-05-12T07:24:03;101024.19;;;13.18;76.35
51849;BME280;38952;51.090;-1.832;2023-05-12T07:26:30;101029.97;;;13.21;76.23
51849;BME280;38952;51.090;-1.832;2023-05-12T07:28:56;101030.88;;;13.37;76.05
51849;BME280;38952;51.090;-1.832;2023-05-12T07:31:28;101015.00;;;13.55;75.45
51849;BME280;38952;51.090;-1.832;2023-05-12T07:33:58;101009.53;;;13.81;73.86
51849;BME280;38952;51.090;-1.832;2023-05-12T07:36:26;101023.84;;;14.19;73.23
51849;BME280;38952;51.090;-1.832;2023-05-12T07:38:59;101044.19;;;14.43;72.72
51849;BME280;38952;51.090;-1.832;2023-05-12T07:41:28;101030.97;;;14.45;71.66
51849;BME280;38952;51.090;-1.832;2023-05-12T07:44:01;101011.72;;;14.45;71.53
51849;BME280;38952;51.090;-1.832;2023-05-12T07:46:40;101010.63;;;14.62;71.17
51849;BME280;38952;51.090;-1.832;2023-05-12T07:49:19;101020.94;;;15.11;70.25
51849;BME280;38952;51.090;-1.832;2023-05-12T07:51:47;101032.84;;;15.51;69.69
51849;BME280;38952;51.090;-1.832;2023-05-12T07:58:18;101046.06;;;16.63;66.13
51849;BME280;38952;51.090;-1.832;2023-05-12T08:00:54;101019.09;;;16.79;64.47
51849;BME280;38952;51.090;-1.832;2023-05-12T08:03:33;101029.78;;;16.62;63.76
51849;BME280;38952;51.090;-1.832;2023-05-12T08:05:59;101048.00;;;16.63;63.93
51849;BME280;38952;51.090;-1.832;2023-05-12T08:08:24;101046.63;;;16.60;63.59
51849;BME280;38952;51.090;-1.832;2023-05-12T08:10:59;101038.63;;;16.34;62.79
51849;BME280;38952;51.090;-1.832;2023-05-12T08:13:25;101046.09;;;15.94;64.25
51849;BME280;38952;51.090;-1.832;2023-05-12T08:15:50;101038.47;;;15.81;64.43
51849;BME280;38952;51.090;-1.832;2023-05-12T08:18:16;101034.19;;;15.99;64.75
51849;BME280;38952;51.090;-1.832;2023-05-12T08:20:42;101038.44;;;16.20;65.15
51849;BME280;38952;51.090;-1.832;2023-05-12T08:23:15;101033.63;;;16.36;64.05
51849;BME280;38952;51.090;-1.832;2023-05-12T08:25:43;101039.56;;;16.78;63.50
51849;BME280;38952;51.090;-1.832;2023-05-12T08:28:16;101025.66;;;17.32;61.58
51849;BME280;38952;51.090;-1.832;2023-05-12T08:30:41;101047.97;;;17.59;60.04
51849;BME280;38952;51.090;-1.832;2023-05-12T08:33:14;101043.25;;;17.79;58.44
51849;BME280;38952;51.090;-1.832;2023-05-12T08:35:40;101035.28;;;17.96;58.55
51849;BME280;38952;51.090;-1.832;2023-05-12T08:45:40;101042.81;;;18.43;56.47
51849;BME280;38952;51.090;-1.832;2023-05-12T08:48:10;101056.22;;;18.82;56.42
51849;BME280;38952;51.090;-1.832;2023-05-12T08:50:38;101040.63;;;19.00;55.22
51849;BME280;38952;51.090;-1.832;2023-05-12T08:53:07;101046.16;;;19.28;54.40
51849;BME280;38952;51.090;-1.832;2023-05-12T08:55:46;101046.78;;;19.25;54.12
51849;BME280;38952;51.090;-1.832;2023-05-12T08:58:14;101040.03;;;19.04;54.55
51849;BME280;38952;51.090;-1.832;2023-05-12T09:00:48;101042.28;;;19.15;54.22
51849;BME280;38952;51.090;-1.832;2023-05-12T09:03:17;101057.38;;;19.23;53.96
51849;BME280;38952;51.090;-1.832;2023-05-12T09:06:04;101042.09;;;19.12;53.06
51849;BME280;38952;51.090;-1.832;2023-05-12T09:08:30;101042.06;;;18.84;53.16
51849;BME280;38952;51.090;-1.832;2023-05-12T09:11:11;101042.53;;;19.42;53.41
51849;BME280;38952;51.090;-1.832;2023-05-12T09:13:44;101049.19;;;20.59;52.07
51849;BME280;38952;51.090;-1.832;2023-05-12T09:16:21;101054.56;;;21.36;50.86
51849;BME280;38952;51.090;-1.832;2023-05-12T09:18:51;101074.00;;;22.02;48.88
51849;BME280;38952;51.090;-1.832;2023-05-12T09:21:17;101066.44;;;22.03;48.09
51849;BME280;38952;51.090;-1.832;2023-05-12T09:23:59;101079.38;;;22.07;47.61
51849;BME280;38952;51.090;-1.832;2023-05-12T09:26:43;101057.94;;;22.17;46.44
51849;BME280;38952;51.090;-1.832;2023-05-12T09:29:14;101082.34;;;22.37;46.24
51849;BME280;38952;51.090;-1.832;2023-05-12T09:31:53;101057.75;;;21.52;46.56
51849;BME280;38952;51.090;-1.832;2023-05-12T09:34:25;101082.97;;;21.64;46.58
51849;BME280;38952;51.090;-1.832;2023-05-12T09:36:59;101074.47;;;22.39;45.07
51849;BME280;38952;51.090;-1.832;2023-05-12T09:39:27;101058.88;;;24.05;41.28
51849;BME280;38952;51.090;-1.832;2023-05-12T09:41:54;101081.28;;;25.34;38.26
51849;BME280;38952;51.090;-1.832;2023-05-12T09:44:23;101065.56;;;25.70;36.09
51849;BME280;38952;51.090;-1.832;2023-05-12T09:46:51;101085.91;;;27.44;35.21
51849;BME280;38952;51.090;-1.832;2023-05-12T09:49:21;101075.22;;;29.17;31.60
51849;BME280;38952;51.090;-1.832;2023-05-12T09:51:54;101076.44;;;30.71;29.36
51849;BME280;38952;51.090;-1.832;2023-05-12T09:54:30;101077.34;;;32.01;27.23
51849;BME280;38952;51.090;-1.832;2023-05-12T09:57:00;101079.97;;;32.71;26.55
51849;BME280;38952;51.090;-1.832;2023-05-12T09:59:30;101077.13;;;33.14;25.34
51849;BME280;38952;51.090;-1.832;2023-05-12T10:02:05;101090.41;;;34.56;24.80
51849;BME280;38952;51.090;-1.832;2023-05-12T10:04:40;101088.00;;;36.76;22.56
51849;BME280;38952;51.090;-1.832;2023-05-12T10:07:09;101090.16;;;38.03;20.37
51849;BME280;38952;51.090;-1.832;2023-05-12T10:09:37;101071.91;;;38.70;19.81
51849;BME280;38952;51.090;-1.832;2023-05-12T10:12:07;101081.47;;;39.42;19.15
51849;BME280;38952;51.090;-1.832;2023-05-12T10:14:40;101068.66;;;40.19;17.91
51849;BME280;38952;51.090;-1.832;2023-05-12T10:17:14;101070.63;;;38.55;18.43
51849;BME280;38952;51.090;-1.832;2023-05-12T10:19:40;101075.09;;;36.95;20.43
51849;BME280;38952;51.090;-1.832;2023-05-12T10:22:09;101082.69;;;34.60;21.61
51849;BME280;38952;51.090;-1.832;2023-05-12T10:24:44;101054.88;;;32.91;23.59
51849;BME280;38952;51.090;-1.832;2023-05-12T10:27:11;101055.25;;;32.57;24.16
51849;BME280;38952;51.090;-1.832;2023-05-12T10:29:38;101063.94;;;34.07;23.70
51849;BME280;38952;51.090;-1.832;2023-05-12T10:32:06;101076.16;;;33.97;23.21
51849;BME280;38952;51.090;-1.832;2023-05-12T10:34:35;101078.38;;;33.24;23.08
51849;BME280;38952;51.090;-1.832;2023-05-12T10:37:05;101067.31;;;32.25;23.87
51849;BME280;38952;51.090;-1.832;2023-05-12T10:39:36;101074.63;;;31.53;25.19
51849;BME280;38952;51.090;-1.832;2023-05-12T10:42:08;101077.13;;;31.02;25.40
51849;BME280;38952;51.090;-1.832;2023-05-12T10:44:48;101053.66;;;29.01;27.59
51849;BME280;38952;51.090;-1.832;2023-05-12T10:47:16;101041.28;;;27.58;29.64
51849;BME280;38952;51.090;-1.832;2023-05-12T10:49:42;101065.44;;;26.95;30.35
51849;BME280;38952;51.090;-1.832;2023-05-12T10:52:11;101053.56;;;26.54;31.13
51849;BME280;38952;51.090;-1.832;2023-05-12T10:54:42;101045.88;;;25.94;32.31
51849;BME280;38952;51.090;-1.832;2023-05-12T10:57:18;101050.81;;;26.86;32.24
51849;BME280;38952;51.090;-1.832;2023-05-12T11:00:02;101043.09;;;28.06;29.92
51849;BME280;38952;51.090;-1.832;2023-05-12T11:02:30;101056.31;;;29.71;28.88
51849;BME280;38952;51.090;-1.832;2023-05-12T11:05:09;101055.53;;;31.28;26.92
51849;BME280;38952;51.090;-1.832;2023-05-12T11:07:34;101040.06;;;29.30;27.66
51849;BME280;38952;51.090;-1.832;2023-05-12T11:10:09;101074.50;;;27.37;30.13
51849;BME280;38952;51.090;-1.832;2023-05-12T11:12:35;101044.63;;;25.51;33.17
51849;BME280;38952;51.090;-1.832;2023-05-12T11:15:04;101042.06;;;24.72;34.11
51849;BME280;38952;51.090;-1.832;2023-05-12T11:17:30;101032.22;;;24.53;34.58
51849;BME280;38952;51.090;-1.832;2023-05-12T11:19:58;101055.25;;;26.43;34.80
51849;BME280;38952;51.090;-1.832;2023-05-12T11:22:25;101039.50;;;30.08;29.02
51849;BME280;38952;51.090;-1.832;2023-05-12T11:24:56;101033.25;;;33.80;23.76
51849;BME280;38952;51.090;-1.832;2023-05-12T11:27:22;101038.28;;;37.28;20.73
51849;BME280;38952;51.090;-1.832;2023-05-12T11:29:59;101033.72;;;40.50;17.89
51849;BME280;38952;51.090;-1.832;2023-05-12T11:32:30;101049.59;;;41.91;15.08
51849;BME280;38952;51.090;-1.832;2023-05-12T11:35:18;101057.06;;;42.10;15.59
51849;BME280;38952;51.090;-1.832;2023-05-12T11:37:51;101071.78;;;40.50;15.84
51849;BME280;38952;51.090;-1.832;2023-05-12T11:40:21;101065.84;;;36.37;19.22
51849;BME280;38952;51.090;-1.832;2023-05-12T11:42:50;101053.59;;;33.53;22.29
51849;BME280;38952;51.090;-1.832;2023-05-12T11:45:26;101055.28;;;33.04;22.98
51849;BME280;38952;51.090;-1.832;2023-05-12T11:48:04;101046.38;;;32.77;23.12
51849;BME280;38952;51.090;-1.832;2023-05-12T11:50:31;101008.34;;;33.06;23.64
51849;BME280;38952;51.090;-1.832;2023-05-12T11:52:59;101044.09;;;37.21;21.19
51849;BME280;38952;51.090;-1.832;2023-05-12T11:55:24;101046.94;;;39.50;18.63
51849;BME280;38952;51.090;-1.832;2023-05-12T11:58:01;101033.47;;;40.18;16.55
51849;BME280;38952;51.090;-1.832;2023-05-12T12:00:35;101071.63;;;41.27;15.92
51849;BME280;38952;51.090;-1.832;2023-05-12T12:03:19;101062.94;;;37.38;18.06
51849;BME280;38952;51.090;-1.832;2023-05-12T12:05:59;101041.09;;;33.40;21.12
51849;BME280;38952;51.090;-1.832;2023-05-12T12:08:25;101044.50;;;34.65;21.84
51849;BME280;38952;51.090;-1.832;2023-05-12T12:10:50;101053.06;;;36.17;19.95
51849;BME280;38952;51.090;-1.832;2023-05-12T12:13:20;101041.59;;;35.21;20.84
51849;BME280;38952;51.090;-1.832;2023-05-12T12:15:47;101070.56;;;36.98;19.76
51849;BME280;38952;51.090;-1.832;2023-05-12T12:18:17;101073.16;;;36.38;19.02
51849;BME280;38952;51.090;-1.832;2023-05-12T12:20:43;101059.19;;;33.82;20.40
51849;BME280;38952;51.090;-1.832;2023-05-12T12:23:10;101036.59;;;31.36;23.07
51849;BME280;38952;51.090;-1.832;2023-05-12T12:25:36;101039.16;;;28.99;25.93
51849;BME280;38952;51.090;-1.832;2023-05-12T12:28:01;101053.84;;;28.62;27.49
51849;BME280;38952;51.090;-1.832;2023-05-12T12:30:27;101053.69;;;28.35;27.41
51849;BME280;38952;51.090;-1.832;2023-05-12T12:33:05;101009.72;;;27.45;28.62
51849;BME280;38952;51.090;-1.832;2023-05-12T12:35:31;101037.88;;;29.20;27.44
51849;BME280;38952;51.090;-1.832;2023-05-12T12:37:56;101038.88;;;28.81;26.89
51849;BME280;38952;51.090;-1.832;2023-05-12T12:40:27;101027.97;;;27.94;27.63
51849;BME280;38952;51.090;-1.832;2023-05-12T12:42:56;101036.69;;;26.98;29.58
51849;BME280;38952;51.090;-1.832;2023-05-12T12:45:21;101048.81;;;26.26;30.90
51849;BME280;38952;51.090;-1.832;2023-05-12T12:47:46;101038.53;;;25.61;31.70
51849;BME280;38952;51.090;-1.832;2023-05-12T12:50:12;101041.19;;;25.99;32.82
51849;BME280;38952;51.090;-1.832;2023-05-12T12:52:37;101010.44;;;28.63;29.60
51849;BME280;38952;51.090;-1.832;2023-05-12T12:55:05;101025.53;;;31.09;25.49
51849;BME280;38952;51.090;-1.832;2023-05-12T12:57:30;101024.66;;;31.64;24.95
51849;BME280;38952;51.090;-1.832;2023-05-12T12:59:56;101041.13;;;31.47;25.02